sensor_id;sensor_type;location;lat;lon;timestamp;temperature;humidity
14908;DHT22;7545;52.092;7.006;2023-07-31T00:01:43;17.10;99.90
14908;DHT22;7545;52.092;7.006;2023-07-31T00:04:09;17.10;99.90
14908;DHT22;7545;52.092;7.006;2023-07-31T00:06:34;17.10;99.90
14908;DHT22;7545;52.092;7.006;2023-07-31T00:09:00;17.10;99.90
14908;DHT22;7545;52.092;7.006;2023-07-31T00:11:25;17.00;99.90
14908;DHT22;7545;52.092;7.006;2023-07-31T00:13:53;17.00;99.90
14908;DHT22;7545;52.092;7.006;2023-07-31T00:16:19;17.00;99.90
14908;DHT22;7545;52.092;7.006;2023-07-31T00:18:44;16.90;99.90
14908;DHT22;7545;52.092;7.006;2023-07-31T00:21:10;16.90;99.90
14908;DHT22;7545;52.092;7.006;2023-07-31T00:23:35;16.90;99.90
14908;DHT22;7545;52.092;7.006;2023-07-31T00:26:01;16.90;99.90
14908;DHT22;7545;52.092;7.006;2023-07-31T00:28:28;16.90;99.90
14908;DHT22;7545;52.092;7.006;2023-07-31T00:30:54;16.90;99.90
14908;DHT22;7545;52.092;7.006;2023-07-31T00:33:19;16.90;99.90
14908;DHT22;7545;52.092;7.006;2023-07-31T00:35:45;16.90;99.90
14908;DHT22;7545;52.092;7.006;2023-07-31T00:38:11;16.80;99.90
14908;DHT22;7545;52.092;7.006;2023-07-31T00:40:37;16.80;99.90
14908;DHT22;7545;52.092;7.006;2023-07-31T00:43:03;16.80;99.90
14908;DHT22;7545;52.092;7.006;2023-07-31T00:45:29;16.80;99.90
14908;DHT22;7545;52.092;7.006;2023-07-31T00:47:55;16.80;99.90
14908;DHT22;7545;52.092;7.006;2023-07-31T00:50:24;16.80;99.90
14908;DHT22;7545;52.092;7.006;2023-07-31T00:52:50;16.80;99.90
14908;DHT22;7545;52.092;7.006;2023-07-31T00:55:15;16.70;99.90
14908;DHT22;7545;52.092;7.006;2023-07-31T00:57:41;16.80;99.90
14908;DHT22;7545;52.092;7.006;2023-07-31T01:00:08;16.80;99.90
14908;DHT22;7545;52.092;7.006;2023-07-31T01:02:34;16.80;99.90
14908;DHT22;7545;52.092;7.006;2023-07-31T01:05:00;16.70;99.90
14908;DHT22;7545;52.092;7.006;2023-07-31T01:07:52;16.70;99.90
14908;DHT22;7545;52.092;7.006;2023-07-31T01:10:22;16.70;99.90
14908;DHT22;7545;52.092;7.006;2023-07-31T01:12:52;16.70;99.90
14908;DHT22;7545;52.092;7.006;2023-07-31T01:15:18;16.70;99.90
14908;DHT22;7545;52.092;7.006;2023-07-31T01:17:44;16.70;99.90
14908;DHT22;7545;52.092;7.006;2023-07-31T01:20:14;16.70;99.90
14908;DHT22;7545;52.092;7.006;2023-07-31T01:28:07;16.70;99.90
14908;DHT22;7545;52.092;7.006;2023-07-31T01:30:40;16.70;99.90
14908;DHT22;7545;52.092;7.006;2023-07-31T01:33:06;16.70;99.90
14908;DHT22;7545;52.092;7.006;2023-07-31T01:35:36;16.70;99.90
14908;DHT22;7545;52.092;7.006;2023-07-31T01:38:02;16.70;99.90
14908;DHT22;7545;52.092;7.006;2023-07-31T01:40:28;16.70;99.90
14908;DHT22;7545;52.092;7.006;2023-07-31T01:42:54;16.70;99.90
14908;DHT22;7545;52.092;7.006;2023-07-31T01:45:19;16.70;99.90
14908;DHT22;7545;52.092;7.006;2023-07-31T01:47:45;16.70;99.90
14908;DHT22;7545;52.092;7.006;2023-07-31T01:50:11;16.70;99.90
14908;DHT22;7545;52.092;7.006;2023-07-31T01:52:36;16.70;99.90
14908;DHT22;7545;52.092;7.006;2023-07-31T01:55:02;16.70;99.90
14908;DHT22;7545;52.092;7.006;2023-07-31T01:57:27;16.70;99.90
14908;DHT22;7545;52.092;7.006;2023-07-31T01:59:53;16.70;99.90
14908;DHT22;7545;52.092;7.006;2023-07-31T02:02:19;16.70;99.90
14908;DHT22;7545;52.092;7.006;2023-07-31T02:04:45;16.70;99.90
14908;DHT22;7545;52.092;7.006;2023-07-31T02:07:11;16.70;99.90
14908;DHT22;7545;52.092;7.006;2023-07-31T02:09:36;16.70;99.90
14908;DHT22;7545;52.092;7.006;2023-07-31T02:12:02;16.70;99.90
14908;DHT22;7545;52.092;7.006;2023-07-31T02:14:28;16.70;99.90
14908;DHT22;7545;52.092;7.006;2023-07-31T02:16:53;16.70;99.90
14908;DHT22;7545;52.092;7.006;2023-07-31T02:19:19;16.70;99.90
14908;DHT22;7545;52.092;7.006;2023-07-31T02:21:44;16.80;99.90
14908;DHT22;7545;52.092;7.006;2023-07-31T02:24:10;16.80;99.90
14908;DHT22;7545;52.092;7.006;2023-07-31T02:26:35;16.80;99.90
14908;DHT22;7545;52.092;7.006;2023-07-31T02:29:01;16.80;99.90
14908;DHT22;7545;52.092;7.006;2023-07-31T02:31:27;16.90;99.90
14908;DHT22;7545;52.092;7.006;2023-07-31T02:33:52;16.90;99.90
14908;DHT22;7545;52.092;7.006;2023-07-31T02:36:18;16.90;99.90
14908;DHT22;7545;52.092;7.006;2023-07-31T02:38:44;16.90;99.90
14908;DHT22;7545;52.092;7.006;2023-07-31T02:41:09;16.90;99.90
14908;DHT22;7545;52.092;7.006;2023-07-31T02:43:35;16.90;99.90
14908;DHT22;7545;52.092;7.006;2023-07-31T02:46:01;16.90;99.90
14908;DHT22;7545;52.092;7.006;2023-07-31T02:48:26;17.00;99.90
14908;DHT22;7545;52.092;7.006;2023-07-31T02:50:53;17.00;99.90
14908;DHT22;7545;52.092;7.006;2023-07-31T02:53:18;17.00;99.90
14908;DHT22;7545;52.092;7.006;2023-07-31T02:55:44;17.10;99.90
14908;DHT22;7545;52.092;7.006;2023-07-31T02:58:09;17.10;99.90
14908;DHT22;7545;52.092;7.006;2023-07-31T03:00:35;17.10;99.90
14908;DHT22;7545;52.092;7.006;2023-07-31T03:03:00;17.10;99.90
14908;DHT22;7545;52.092;7.006;2023-07-31T03:05:26;17.00;99.90
14908;DHT22;7545;52.092;7.006;2023-07-31T03:07:51;17.10;99.90
14908;DHT22;7545;52.092;7.006;2023-07-31T03:10:17;17.00;99.90
14908;DHT22;7545;52.092;7.006;2023-07-31T03:12:46;17.10;99.90
14908;DHT22;7545;52.092;7.006;2023-07-31T03:15:12;17.10;99.90
14908;DHT22;7545;52.092;7.006;2023-07-31T03:17:38;17.00;99.90
14908;DHT22;7545;52.092;7.006;2023-07-31T03:20:04;17.00;99.90
14908;DHT22;7545;52.092;7.006;2023-07-31T03:22:32;17.00;99.90
14908;DHT22;7545;52.092;7.006;2023-07-31T03:24:59;17.00;99.90
14908;DHT22;7545;52.092;7.006;2023-07-31T03:27:25;17.10;99.90
14908;DHT22;7545;52.092;7.006;2023-07-31T03:29:50;17.10;99.90
14908;DHT22;7545;52.092;7.006;2023-07-31T03:32:17;17.10;99.90
14908;DHT22;7545;52.092;7.006;2023-07-31T03:34:42;17.10;99.90
14908;DHT22;7545;52.092;7.006;2023-07-31T03:37:08;17.10;99.90
14908;DHT22;7545;52.092;7.006;2023-07-31T03:39:35;17.00;99.90
14908;DHT22;7545;52.092;7.006;2023-07-31T03:42:00;17.10;99.90
14908;DHT22;7545;52.092;7.006;2023-07-31T03:44:26;17.00;99.90
14908;DHT22;7545;52.092;7.006;2023-07-31T03:46:51;17.10;99.90
14908;DHT22;7545;52.092;7.006;2023-07-31T03:49:17;17.10;99.90
14908;DHT22;7545;52.092;7.006;2023-07-31T03:51:43;17.00;99.90
14908;DHT22;7545;52.092;7.006;2023-07-31T03:54:08;17.10;99.90
14908;DHT22;7545;52.092;7.006;2023-07-31T03:56:34;17.10;99.90
14908;DHT22;7545;52.092;7.006;2023-07-31T03:59:00;17.00;99.90
14908;DHT22;7545;52.092;7.006;2023-07-31T04:01:26;17.10;99.90
14908;DHT22;7545;52.092;7.006;2023-07-31T04:03:52;17.00;99.90
14908;DHT22;7545;52.092;7.006;2023-07-31T04:06:20;17.10;99.90
14908;DHT22;7545;52.092;7.006;2023-07-31T04:08:46;17.00;99.90
14908;DHT22;7545;52.092;7.006;2023-07-31T04:11:12;17.00;99.90
14908;DHT22;7545;52.092;7.006;2023-07-31T04:13:38;17.00;99.90
14908;DHT22;7545;52.092;7.006;2023-07-31T04:16:04;17.00;99.90
14908;DHT22;7545;52.092;7.006;2023-07-31T04:18:30;17.00;99.90
14908;DHT22;7545;52.092;7.006;2023-07-31T04:20:56;17.00;99.90
14908;DHT22;7545;52.092;7.006;2023-07-31T04:23:26;16.90;99.90
14908;DHT22;7545;52.092;7.006;2023-07-31T04:25:52;17.00;99.90
14908;DHT22;7545;52.092;7.006;2023-07-31T04:28:17;17.00;99.90
14908;DHT22;7545;52.092;7.006;2023-07-31T04:30:43;17.00;99.90
14908;DHT22;7545;52.092;7.006;2023-07-31T04:33:09;16.90;99.90
14908;DHT22;7545;52.092;7.006;2023-07-31T04:35:34;17.00;99.90
14908;DHT22;7545;52.092;7.006;2023-07-31T04:38:00;16.90;99.90
14908;DHT22;7545;52.092;7.006;2023-07-31T04:40:26;17.00;99.90
14908;DHT22;7545;52.092;7.006;2023-07-31T04:42:51;16.90;99.90
14908;DHT22;7545;52.092;7.006;2023-07-31T04:45:17;16.90;99.90
14908;DHT22;7545;52.092;7.006;2023-07-31T04:47:42;16.90;99.90
14908;DHT22;7545;52.092;7.006;2023-07-31T04:50:08;16.90;99.90
14908;DHT22;7545;52.092;7.006;2023-07-31T04:52:34;16.90;99.90
14908;DHT22;7545;52.092;7.006;2023-07-31T04:55:00;16.90;99.90
14908;DHT22;7545;52.092;7.006;2023-07-31T04:57:25;16.90;99.90
14908;DHT22;7545;52.092;7.006;2023-07-31T04:59:51;16.90;99.90
14908;DHT22;7545;52.092;7.006;2023-07-31T05:02:16;16.90;99.90
14908;DHT22;7545;52.092;7.006;2023-07-31T05:04:42;16.90;99.90
14908;DHT22;7545;52.092;7.006;2023-07-31T05:07:08;16.90;99.90
14908;DHT22;7545;52.092;7.006;2023-07-31T05:09:33;16.90;99.90
14908;DHT22;7545;52.092;7.006;2023-07-31T05:11:59;16.90;99.90
14908;DHT22;7545;52.092;7.006;2023-07-31T05:14:25;16.90;99.90
14908;DHT22;7545;52.092;7.006;2023-07-31T05:16:51;16.90;99.90
14908;DHT22;7545;52.092;7.006;2023-07-31T05:19:17;16.90;99.90
14908;DHT22;7545;52.092;7.006;2023-07-31T05:21:43;16.90;99.90
14908;DHT22;7545;52.092;7.006;2023-07-31T05:24:09;16.90;99.90
14908;DHT22;7545;52.092;7.006;2023-07-31T05:26:35;16.90;99.90
14908;DHT22;7545;52.092;7.006;2023-07-31T05:29:00;16.90;99.90
14908;DHT22;7545;52.092;7.006;2023-07-31T05:31:26;16.90;99.90
14908;DHT22;7545;52.092;7.006;2023-07-31T05:33:52;16.90;99.90
14908;DHT22;7545;52.092;7.006;2023-07-31T05:36:17;16.90;99.90
14908;DHT22;7545;52.092;7.006;2023-07-31T05:38:43;16.90;99.90
14908;DHT22;7545;52.092;7.006;2023-07-31T05:41:12;16.90;99.90
14908;DHT22;7545;52.092;7.006;2023-07-31T05:43:38;16.80;99.90
14908;DHT22;7545;52.092;7.006;2023-07-31T05:46:04;16.80;99.90
14908;DHT22;7545;52.092;7.006;2023-07-31T05:48:30;16.80;99.90
14908;DHT22;7545;52.092;7.006;2023-07-31T05:50:55;16.80;99.90
14908;DHT22;7545;52.092;7.006;2023-07-31T05:53:21;16.90;99.90
14908;DHT22;7545;52.092;7.006;2023-07-31T05:55:46;16.90;99.90
14908;DHT22;7545;52.092;7.006;2023-07-31T05:58:12;16.90;99.90
14908;DHT22;7545;52.092;7.006;2023-07-31T06:00:37;16.90;99.90
14908;DHT22;7545;52.092;7.006;2023-07-31T06:03:03;16.90;99.90
14908;DHT22;7545;52.092;7.006;2023-07-31T06:05:29;16.90;99.90
14908;DHT22;7545;52.092;7.006;2023-07-31T06:07:55;16.90;99.90
14908;DHT22;7545;52.092;7.006;2023-07-31T06:10:21;17.00;99.90
14908;DHT22;7545;52.092;7.006;2023-07-31T06:12:47;17.00;99.90
14908;DHT22;7545;52.092;7.006;2023-07-31T06:15:12;17.00;99.90
14908;DHT22;7545;52.092;7.006;2023-07-31T06:17:38;17.00;99.90
14908;DHT22;7545;52.092;7.006;2023-07-31T06:20:05;17.00;99.90
14908;DHT22;7545;52.092;7.006;2023-07-31T06:22:31;17.10;99.90
14908;DHT22;7545;52.092;7.006;2023-07-31T06:24:57;17.10;99.90
14908;DHT22;7545;52.092;7.006;2023-07-31T06:27:23;17.10;99.90
14908;DHT22;7545;52.092;7.006;2023-07-31T06:29:48;17.20;99.90
14908;DHT22;7545;52.092;7.006;2023-07-31T06:32:14;17.10;99.90
14908;DHT22;7545;52.092;7.006;2023-07-31T06:34:40;17.20;99.90
14908;DHT22;7545;52.092;7.006;2023-07-31T06:37:05;17.20;99.90
14908;DHT22;7545;52.092;7.006;2023-07-31T06:39:31;17.20;99.90
14908;DHT22;7545;52.092;7.006;2023-07-31T06:41:57;17.20;99.90
14908;DHT22;7545;52.092;7.006;2023-07-31T06:44:22;17.20;99.90
14908;DHT22;7545;52.092;7.006;2023-07-31T06:46:48;17.10;99.90
14908;DHT22;7545;52.092;7.006;2023-07-31T06:49:13;17.20;99.90
14908;DHT22;7545;52.092;7.006;2023-07-31T06:51:40;17.10;99.90
14908;DHT22;7545;52.092;7.006;2023-07-31T06:54:07;17.10;99.90
14908;DHT22;7545;52.092;7.006;2023-07-31T06:56:33;17.10;99.90
14908;DHT22;7545;52.092;7.006;2023-07-31T06:58:58;17.10;99.90
14908;DHT22;7545;52.092;7.006;2023-07-31T07:01:24;17.10;99.90
14908;DHT22;7545;52.092;7.006;2023-07-31T07:03:50;17.10;99.90
14908;DHT22;7545;52.092;7.006;2023-07-31T07:06:16;17.10;99.90
14908;DHT22;7545;52.092;7.006;2023-07-31T07:08:43;17.10;99.90
14908;DHT22;7545;52.092;7.006;2023-07-31T07:11:08;17.10;99.90
14908;DHT22;7545;52.092;7.006;2023-07-31T07:13:34;17.10;99.90
14908;DHT22;7545;52.092;7.006;2023-07-31T07:15:59;17.10;99.90
14908;DHT22;7545;52.092;7.006;2023-07-31T07:18:25;17.10;99.90
14908;DHT22;7545;52.092;7.006;2023-07-31T07:20:52;17.20;99.90
14908;DHT22;7545;52.092;7.006;2023-07-31T07:23:18;17.20;99.90
14908;DHT22;7545;52.092;7.006;2023-07-31T07:25:45;17.20;99.90
14908;DHT22;7545;52.092;7.006;2023-07-31T07:28:11;17.20;99.90
14908;DHT22;7545;52.092;7.006;2023-07-31T07:30:37;17.20;99.90
14908;DHT22;7545;52.092;7.006;2023-07-31T07:33:03;17.20;99.90
14908;DHT22;7545;52.092;7.006;2023-07-31T07:35:29;17.20;99.90
14908;DHT22;7545;52.092;7.006;2023-07-31T07:37:54;17.20;99.90
14908;DHT22;7545;52.092;7.006;2023-07-31T07:40:20;17.30;99.90
14908;DHT22;7545;52.092;7.006;2023-07-31T07:42:46;17.30;99.90
14908;DHT22;7545;52.092;7.006;2023-07-31T07:45:12;17.30;99.90
14908;DHT22;7545;52.092;7.006;2023-07-31T07:47:40;17.40;99.90
14908;DHT22;7545;52.092;7.006;2023-07-31T07:50:06;17.30;99.90
14908;DHT22;7545;52.092;7.006;2023-07-31T07:52:32;17.40;99.90
14908;DHT22;7545;52.092;7.006;2023-07-31T07:54:57;17.40;99.90
14908;DHT22;7545;52.092;7.006;2023-07-31T07:57:23;17.40;99.90
14908;DHT22;7545;52.092;7.006;2023-07-31T07:59:49;17.40;99.90
14908;DHT22;7545;52.092;7.006;2023-07-31T08:02:14;17.40;99.90
14908;DHT22;7545;52.092;7.006;2023-07-31T08:04:40;17.40;99.90
14908;DHT22;7545;52.092;7.006;2023-07-31T08:07:05;17.40;99.90
14908;DHT22;7545;52.092;7.006;2023-07-31T08:09:31;17.40;99.90
14908;DHT22;7545;52.092;7.006;2023-07-31T08:11:56;17.50;99.90
14908;DHT22;7545;52.092;7.006;2023-07-31T08:14:27;17.50;99.90
14908;DHT22;7545;52.092;7.006;2023-07-31T08:16:53;17.50;99.90
14908;DHT22;7545;52.092;7.006;2023-07-31T08:19:18;17.50;99.90
14908;DHT22;7545;52.092;7.006;2023-07-31T08:21:44;17.50;99.90
14908;DHT22;7545;52.092;7.006;2023-07-31T08:24:09;17.60;99.90
14908;DHT22;7545;52.092;7.006;2023-07-31T08:26:35;17.60;99.90
14908;DHT22;7545;52.092;7.006;2023-07-31T08:29:01;17.70;99.90
14908;DHT22;7545;52.092;7.006;2023-07-31T08:31:26;17.70;99.90
14908;DHT22;7545;52.092;7.006;2023-07-31T08:33:52;17.70;99.90
14908;DHT22;7545;52.092;7.006;2023-07-31T08:36:18;17.80;99.90
14908;DHT22;7545;52.092;7.006;2023-07-31T08:38:45;17.80;99.90
14908;DHT22;7545;52.092;7.006;2023-07-31T08:41:10;17.80;99.90
14908;DHT22;7545;52.092;7.006;2023-07-31T08:43:38;17.80;99.90
14908;DHT22;7545;52.092;7.006;2023-07-31T08:46:03;17.80;99.90
14908;DHT22;7545;52.092;7.006;2023-07-31T08:48:31;17.80;99.90
14908;DHT22;7545;52.092;7.006;2023-07-31T08:50:57;17.90;99.90
14908;DHT22;7545;52.092;7.006;2023-07-31T08:53:23;17.90;99.90
14908;DHT22;7545;52.092;7.006;2023-07-31T08:55:49;17.80;99.90
14908;DHT22;7545;52.092;7.006;2023-07-31T08:58:15;17.80;99.90
14908;DHT22;7545;52.092;7.006;2023-07-31T09:00:43;17.80;99.90
14908;DHT22;7545;52.092;7.006;2023-07-31T09:03:15;17.80;99.90
14908;DHT22;7545;52.092;7.006;2023-07-31T09:05:44;17.80;99.90
14908;DHT22;7545;52.092;7.006;2023-07-31T09:08:11;17.80;99.90
14908;DHT22;7545;52.092;7.006;2023-07-31T09:10:44;17.80;99.90
14908;DHT22;7545;52.092;7.006;2023-07-31T09:13:12;17.80;99.90
14908;DHT22;7545;52.092;7.006;2023-07-31T09:15:37;17.80;99.90
14908;DHT22;7545;52.092;7.006;2023-07-31T09:18:06;17.80;99.90
14908;DHT22;7545;52.092;7.006;2023-07-31T09:20:32;17.90;99.90
14908;DHT22;7545;52.092;7.006;2023-07-31T09:23:09;17.90;99.90
14908;DHT22;7545;52.092;7.006;2023-07-31T09:25:35;17.90;99.90
14908;DHT22;7545;52.092;7.006;2023-07-31T09:28:06;17.90;99.90
14908;DHT22;7545;52.092;7.006;2023-07-31T09:30:45;17.90;99.90
14908;DHT22;7545;52.092;7.006;2023-07-31T09:33:11;17.90;99.90
14908;DHT22;7545;52.092;7.006;2023-07-31T09:35:37;17.90;99.90
14908;DHT22;7545;52.092;7.006;2023-07-31T09:38:11;17.90;99.90
14908;DHT22;7545;52.092;7.006;2023-07-31T09:40:43;17.90;99.90
14908;DHT22;7545;52.092;7.006;2023-07-31T09:43:10;17.90;99.90
14908;DHT22;7545;52.092;7.006;2023-07-31T09:45:38;17.90;99.90
14908;DHT22;7545;52.092;7.006;2023-07-31T09:48:10;18.00;99.90
14908;DHT22;7545;52.092;7.006;2023-07-31T09:50:38;18.00;99.90
14908;DHT22;7545;52.092;7.006;2023-07-31T09:53:05;18.00;99.90
14908;DHT22;7545;52.092;7.006;2023-07-31T09:55:31;18.10;99.90
14908;DHT22;7545;52.092;7.006;2023-07-31T09:58:02;18.10;99.90
14908;DHT22;7545;52.092;7.006;2023-07-31T10:00:30;18.10;99.90
14908;DHT22;7545;52.092;7.006;2023-07-31T10:02:59;18.00;99.90
14908;DHT22;7545;52.092;7.006;2023-07-31T10:05:31;18.00;99.90
14908;DHT22;7545;52.092;7.006;2023-07-31T10:07:59;18.00;99.90
14908;DHT22;7545;52.092;7.006;2023-07-31T10:10:26;18.00;99.90
14908;DHT22;7545;52.092;7.006;2023-07-31T10:12:53;18.00;99.90
14908;DHT22;7545;52.092;7.006;2023-07-31T10:15:19;18.00;99.90
14908;DHT22;7545;52.092;7.006;2023-07-31T10:17:49;18.00;99.90
14908;DHT22;7545;52.092;7.006;2023-07-31T10:20:16;18.00;99.90
14908;DHT22;7545;52.092;7.006;2023-07-31T10:22:42;18.00;99.90
14908;DHT22;7545;52.092;7.006;2023-07-31T10:25:09;18.00;99.90
14908;DHT22;7545;52.092;7.006;2023-07-31T10:27:36;18.00;99.90
14908;DHT22;7545;52.092;7.006;2023-07-31T10:30:05;18.00;99.90
14908;DHT22;7545;52.092;7.006;2023-07-31T10:32:31;18.00;99.90
14908;DHT22;7545;52.092;7.006;2023-07-31T10:34:58;18.00;99.90
14908;DHT22;7545;52.092;7.006;2023-07-31T10:40:04;18.00;99.90
14908;DHT22;7545;52.092;7.006;2023-07-31T10:42:35;18.10;99.90
14908;DHT22;7545;52.092;7.006;2023-07-31T10:45:06;18.10;99.90
14908;DHT22;7545;52.092;7.006;2023-07-31T10:48:02;18.10;99.90
14908;DHT22;7545;52.092;7.006;2023-07-31T10:50:29;18.20;99.90
14908;DHT22;7545;52.092;7.006;2023-07-31T10:52:56;18.20;99.90
14908;DHT22;7545;52.092;7.006;2023-07-31T10:55:45;18.20;99.90
14908;DHT22;7545;52.092;7.006;2023-07-31T10:58:14;18.20;99.90
14908;DHT22;7545;52.092;7.006;2023-07-31T11:00:44;18.20;99.90
14908;DHT22;7545;52.092;7.006;2023-07-31T11:03:14;18.20;99.90
14908;DHT22;7545;52.092;7.006;2023-07-31T11:06:00;18.20;99.90
14908;DHT22;7545;52.092;7.006;2023-07-31T11:08:31;18.20;99.90
14908;DHT22;7545;52.092;7.006;2023-07-31T11:13:33;18.20;99.90
14908;DHT22;7545;52.092;7.006;2023-07-31T11:16:00;18.20;99.90
14908;DHT22;7545;52.092;7.006;2023-07-31T11:18:28;18.20;99.90
14908;DHT22;7545;52.092;7.006;2023-07-31T11:20:54;18.20;99.90
14908;DHT22;7545;52.092;7.006;2023-07-31T11:23:22;18.20;99.90
14908;DHT22;7545;52.092;7.006;2023-07-31T11:25:48;18.20;99.90
14908;DHT22;7545;52.092;7.006;2023-07-31T11:28:15;18.10;99.90
14908;DHT22;7545;52.092;7.006;2023-07-31T11:30:42;18.10;99.90
14908;DHT22;7545;52.092;7.006;2023-07-31T11:33:10;18.20;99.90
14908;DHT22;7545;52.092;7.006;2023-07-31T11:35:47;18.20;99.90
14908;DHT22;7545;52.092;7.006;2023-07-31T11:38:26;18.20;99.90
14908;DHT22;7545;52.092;7.006;2023-07-31T11:40:56;18.20;99.90
14908;DHT22;7545;52.092;7.006;2023-07-31T11:43:23;18.20;99.90
14908;DHT22;7545;52.092;7.006;2023-07-31T11:45:51;18.10;99.90
14908;DHT22;7545;52.092;7.006;2023-07-31T11:48:24;18.20;99.90
14908;DHT22;7545;52.092;7.006;2023-07-31T11:50:51;18.20;99.90
14908;DHT22;7545;52.092;7.006;2023-07-31T11:53:23;18.30;99.90
14908;DHT22;7545;52.092;7.006;2023-07-31T11:55:50;18.30;99.90
14908;DHT22;7545;52.092;7.006;2023-07-31T11:58:16;18.40;99.90
14908;DHT22;7545;52.092;7.006;2023-07-31T12:00:43;18.40;99.90
14908;DHT22;7545;52.092;7.006;2023-07-31T12:03:08;18.50;99.90
14908;DHT22;7545;52.092;7.006;2023-07-31T12:05:36;18.50;99.90
14908;DHT22;7545;52.092;7.006;2023-07-31T12:08:08;18.60;99.90
14908;DHT22;7545;52.092;7.006;2023-07-31T12:10:35;18.60;99.90
14908;DHT22;7545;52.092;7.006;2023-07-31T12:13:11;18.70;99.90
14908;DHT22;7545;52.092;7.006;2023-07-31T12:15:45;18.70;99.90
14908;DHT22;7545;52.092;7.006;2023-07-31T12:18:17;18.80;99.90
14908;DHT22;7545;52.092;7.006;2023-07-31T12:20:57;18.80;99.90
14908;DHT22;7545;52.092;7.006;2023-07-31T12:23:26;18.80;99.90
14908;DHT22;7545;52.092;7.006;2023-07-31T12:26:08;18.80;99.90
14908;DHT22;7545;52.092;7.006;2023-07-31T12:28:38;18.80;99.90
14908;DHT22;7545;52.092;7.006;2023-07-31T12:31:04;18.80;99.90
14908;DHT22;7545;52.092;7.006;2023-07-31T12:33:31;18.80;99.90
14908;DHT22;7545;52.092;7.006;2023-07-31T12:36:00;18.80;99.90
14908;DHT22;7545;52.092;7.006;2023-07-31T12:38:26;18.80;99.90
14908;DHT22;7545;52.092;7.006;2023-07-31T12:40:51;18.80;99.90
14908;DHT22;7545;52.092;7.006;2023-07-31T12:43:17;18.80;99.90
14908;DHT22;7545;52.092;7.006;2023-07-31T12:45:42;18.70;99.90
14908;DHT22;7545;52.092;7.006;2023-07-31T12:48:08;18.70;99.90
14908;DHT22;7545;52.092;7.006;2023-07-31T12:50:33;18.70;99.90
14908;DHT22;7545;52.092;7.006;2023-07-31T12:53:02;18.80;99.90
14908;DHT22;7545;52.092;7.006;2023-07-31T12:55:28;18.80;99.90
14908;DHT22;7545;52.092;7.006;2023-07-31T12:57:55;18.90;99.90
14908;DHT22;7545;52.092;7.006;2023-07-31T13:00:21;19.00;99.90
14908;DHT22;7545;52.092;7.006;2023-07-31T13:02:47;19.00;99.90
14908;DHT22;7545;52.092;7.006;2023-07-31T13:05:12;19.00;99.90
14908;DHT22;7545;52.092;7.006;2023-07-31T13:07:39;19.00;99.90
14908;DHT22;7545;52.092;7.006;2023-07-31T13:10:05;19.10;99.90
14908;DHT22;7545;52.092;7.006;2023-07-31T13:12:31;19.10;99.90
14908;DHT22;7545;52.092;7.006;2023-07-31T13:14:57;19.10;99.90
14908;DHT22;7545;52.092;7.006;2023-07-31T13:17:23;19.10;99.90
14908;DHT22;7545;52.092;7.006;2023-07-31T13:19:48;19.20;99.90
14908;DHT22;7545;52.092;7.006;2023-07-31T13:22:14;19.20;99.90
14908;DHT22;7545;52.092;7.006;2023-07-31T13:24:39;19.20;99.90
14908;DHT22;7545;52.092;7.006;2023-07-31T13:27:05;19.20;99.90
14908;DHT22;7545;52.092;7.006;2023-07-31T13:29:31;19.30;99.90
14908;DHT22;7545;52.092;7.006;2023-07-31T13:31:57;19.30;99.90
14908;DHT22;7545;52.092;7.006;2023-07-31T13:34:23;19.30;99.90
14908;DHT22;7545;52.092;7.006;2023-07-31T13:36:48;19.30;99.90
14908;DHT22;7545;52.092;7.006;2023-07-31T13:39:14;19.30;99.90
14908;DHT22;7545;52.092;7.006;2023-07-31T13:41:39;19.30;99.90
14908;DHT22;7545;52.092;7.006;2023-07-31T13:44:05;19.30;99.90
14908;DHT22;7545;52.092;7.006;2023-07-31T13:46:31;19.30;99.90
14908;DHT22;7545;52.092;7.006;2023-07-31T13:49:00;19.20;99.90
14908;DHT22;7545;52.092;7.006;2023-07-31T13:51:27;19.20;99.90
14908;DHT22;7545;52.092;7.006;2023-07-31T13:53:53;19.20;99.90
14908;DHT22;7545;52.092;7.006;2023-07-31T13:56:19;19.20;99.90
14908;DHT22;7545;52.092;7.006;2023-07-31T13:58:44;19.20;99.90
14908;DHT22;7545;52.092;7.006;2023-07-31T14:01:10;19.20;99.90
14908;DHT22;7545;52.092;7.006;2023-07-31T14:03:36;19.20;99.90
14908;DHT22;7545;52.092;7.006;2023-07-31T14:06:01;19.30;99.90
14908;DHT22;7545;52.092;7.006;2023-07-31T14:08:27;19.30;99.90
14908;DHT22;7545;52.092;7.006;2023-07-31T14:10:53;19.30;99.90
14908;DHT22;7545;52.092;7.006;2023-07-31T14:13:18;19.30;99.90
14908;DHT22;7545;52.092;7.006;2023-07-31T14:15:44;19.30;99.90
14908;DHT22;7545;52.092;7.006;2023-07-31T14:18:09;19.30;99.90
14908;DHT22;7545;52.092;7.006;2023-07-31T14:20:35;19.30;99.90
14908;DHT22;7545;52.092;7.006;2023-07-31T14:23:02;19.30;99.90
14908;DHT22;7545;52.092;7.006;2023-07-31T14:25:28;19.30;99.90
14908;DHT22;7545;52.092;7.006;2023-07-31T14:27:53;19.40;99.90
14908;DHT22;7545;52.092;7.006;2023-07-31T14:30:19;19.50;99.90
14908;DHT22;7545;52.092;7.006;2023-07-31T14:32:45;19.50;99.90
14908;DHT22;7545;52.092;7.006;2023-07-31T14:35:11;19.50;99.90
14908;DHT22;7545;52.092;7.006;2023-07-31T14:37:38;19.50;99.90
14908;DHT22;7545;52.092;7.006;2023-07-31T14:40:04;19.50;99.90
14908;DHT22;7545;52.092;7.006;2023-07-31T14:42:30;19.50;99.90
14908;DHT22;7545;52.092;7.006;2023-07-31T14:44:56;19.50;99.90
14908;DHT22;7545;52.092;7.006;2023-07-31T14:47:21;19.50;99.90
14908;DHT22;7545;52.092;7.006;2023-07-31T14:49:47;19.50;99.90
14908;DHT22;7545;52.092;7.006;2023-07-31T14:52:12;19.50;99.90
14908;DHT22;7545;52.092;7.006;2023-07-31T14:54:38;19.50;99.90
14908;DHT22;7545;52.092;7.006;2023-07-31T14:57:04;19.50;99.90
14908;DHT22;7545;52.092;7.006;2023-07-31T14:59:29;19.40;99.90
14908;DHT22;7545;52.092;7.006;2023-07-31T15:01:55;19.30;99.90
14908;DHT22;7545;52.092;7.006;2023-07-31T15:04:20;19.30;99.90
14908;DHT22;7545;52.092;7.006;2023-07-31T15:06:47;19.30;99.90
14908;DHT22;7545;52.092;7.006;2023-07-31T15:09:12;19.20;99.90
14908;DHT22;7545;52.092;7.006;2023-07-31T15:11:38;19.20;99.90
14908;DHT22;7545;52.092;7.006;2023-07-31T15:14:04;19.10;99.90
14908;DHT22;7545;52.092;7.006;2023-07-31T15:16:29;19.10;99.90
14908;DHT22;7545;52.092;7.006;2023-07-31T15:18:56;19.10;99.90
14908;DHT22;7545;52.092;7.006;2023-07-31T15:21:22;19.00;99.90
14908;DHT22;7545;52.092;7.006;2023-07-31T15:23:48;19.00;99.90
14908;DHT22;7545;52.092;7.006;2023-07-31T15:26:13;19.00;99.90
14908;DHT22;7545;52.092;7.006;2023-07-31T15:28:39;19.00;99.90
14908;DHT22;7545;52.092;7.006;2023-07-31T15:31:04;19.00;99.90
14908;DHT22;7545;52.092;7.006;2023-07-31T15:33:30;19.00;99.90
14908;DHT22;7545;52.092;7.006;2023-07-31T15:35:55;18.90;99.90
14908;DHT22;7545;52.092;7.006;2023-07-31T15:38:23;18.90;99.90
14908;DHT22;7545;52.092;7.006;2023-07-31T15:40:48;18.90;99.90
14908;DHT22;7545;52.092;7.006;2023-07-31T15:43:15;18.90;99.90
14908;DHT22;7545;52.092;7.006;2023-07-31T15:45:41;18.90;99.90
14908;DHT22;7545;52.092;7.006;2023-07-31T15:48:07;18.90;99.90
14908;DHT22;7545;52.092;7.006;2023-07-31T15:50:32;18.90;99.90
14908;DHT22;7545;52.092;7.006;2023-07-31T15:52:58;18.90;99.90